Time;durP1;ratioP1;P1;durP2;ratioP2;P2;SDS_P1;SDS_P2;PMS_P1;PMS_P2;Temp;Humidity;BMP_temperature;BMP_pressure;BME280_temperature;BME280_humidity;BME280_pressure;Samples;Min_cycle;Max_cycle;Signal;HPM_P1;HPM_P2
2020/05/14 00:01:38;;;;;;;18.9;17.1;;;;;;;;;;;;;
2020/05/14 00:04:02;;;;;;;19.5;17.6;;;;;;;;;;;;;
2020/05/14 00:06:35;;;;;;;20.5;18.6;;;;;;;;;;;;;
2020/05/14 00:08:53;;;;;;;20.5;18.6;;;;;;;;;;;;;
2020/05/14 00:11:20;;;;;;;21.2;19.3;;;;;;;;;;;;;
2020/05/14 00:13:45;;;;;;;21.6;19.6;;;;;;;;;;;;;
2020/05/14 00:16:10;;;;;;;22.3;20.2;;;;;;;;;;;;;
2020/05/14 00:18:35;;;;;;;21.8;19.7;;;;;;;;;;;;;
2020/05/14 00:21:00;;;;;;;22.1;20;;;;;;;;;;;;;
2020/05/14 00:23:25;;;;;;;24.2;21.9;;;;;;;;;;;;;
2020/05/14 00:25:51;;;;;;;23.2;20.9;;;;;;;;;;;;;
2020/05/14 00:28:16;;;;;;;23.4;21.2;;;;;;;;;;;;;
2020/05/14 00:30:41;;;;;;;24.3;21.9;;;;;;;;;;;;;
2020/05/14 00:33:06;;;;;;;24.2;21.9;;;;;;;;;;;;;
2020/05/14 00:35:32;;;;;;;25.2;22.7;;;;;;;;;;;;;
2020/05/14 00:37:58;;;;;;;25.8;23.2;;;;;;;;;;;;;
2020/05/14 00:40:23;;;;;;;25.9;23.3;;;;;;;;;;;;;
2020/05/14 00:42:48;;;;;;;26.5;23.9;;;;;;;;;;;;;
2020/05/14 00:45:13;;;;;;;27.4;24.7;;;;;;;;;;;;;
2020/05/14 00:47:38;;;;;;;27.2;24.5;;;;;;;;;;;;;
2020/05/14 00:50:03;;;;;;;28.7;25.9;;;;;;;;;;;;;
2020/05/14 00:52:28;;;;;;;28.6;25.7;;;;;;;;;;;;;
2020/05/14 00:54:53;;;;;;;29.4;26.5;;;;;;;;;;;;;
2020/05/14 00:57:20;;;;;;;28.5;25.7;;;;;;;;;;;;;
2020/05/14 00:59:45;;;;;;;29.2;26.2;;;;;;;;;;;;;
2020/05/14 01:02:10;;;;;;;28.4;25.6;;;;;;;;;;;;;
2020/05/14 01:04:51;;;;;;;28.3;25.4;;;;;;;;;;;;;
2020/05/14 01:07:02;;;;;;;28.2;25.4;;;;;;;;;;;;;
2020/05/14 01:09:25;;;;;;;27.9;25.1;;;;;;;;;;;;;
2020/05/14 01:11:51;;;;;;;28.6;25.7;;;;;;;;;;;;;
2020/05/14 01:14:16;;;;;;;28.7;25.7;;;;;;;;;;;;;
2020/05/14 01:16:46;;;;;;;27.9;25.1;;;;;;;;;;;;;
2020/05/14 01:19:07;;;;;;;28;25.2;;;;;;;;;;;;;
2020/05/14 01:21:31;;;;;;;27.6;24.7;;;;;;;;;;;;;
2020/05/14 01:23:56;;;;;;;28.1;25.2;;;;;;;;;;;;;
2020/05/14 01:26:22;;;;;;;27.2;24.5;;;;;;;;;;;;;
2020/05/14 01:28:47;;;;;;;29.4;26.4;;;;;;;;;;;;;
2020/05/14 01:31:12;;;;;;;31;27.8;;;;;;;;;;;;;
2020/05/14 01:33:37;;;;;;;31.7;28.3;;;;;;;;;;;;;
2020/05/14 01:36:03;;;;;;;33.2;29.6;;;;;;;;;;;;;
2020/05/14 01:38:27;;;;;;;32.6;29.1;;;;;;;;;;;;;
2020/05/14 01:40:53;;;;;;;33.8;30.1;;;;;;;;;;;;;
2020/05/14 01:46:04;;;;;;;32.7;28.4;;;;;;;;;;;;;
2020/05/14 01:48:17;;;;;;;33.1;29.1;;;;;;;;;;;;;
2020/05/14 01:50:45;;;;;;;32.2;28.8;;;;;;;;;;;;;
2020/05/14 01:53:03;;;;;;;31.4;28.1;;;;;;;;;;;;;
2020/05/14 01:55:24;;;;;;;31.3;27.9;;;;;;;;;;;;;
2020/05/14 01:57:49;;;;;;;30.6;26.1;;;;;;;;;;;;;
2020/05/14 02:00:14;;;;;;;29.2;26;;;;;;;;;;;;;
2020/05/14 02:02:39;;;;;;;29.1;25.9;;;;;;;;;;;;;
2020/05/14 02:05:04;;;;;;;28.9;25.2;;;;;;;;;;;;;
2020/05/14 02:07:29;;;;;;;28.9;25.8;;;;;;;;;;;;;
2020/05/14 02:09:54;;;;;;;28;25;;;;;;;;;;;;;
2020/05/14 02:12:36;;;;;;;28.9;25.8;;;;;;;;;;;;;
2020/05/14 02:22:04;;;;;;;27.2;24.1;;;;;;;;;;;;;
2020/05/14 02:24:26;;;;;;;28.3;25.2;;;;;;;;;;;;;
2020/05/14 02:26:51;;;;;;;26.7;23.8;;;;;;;;;;;;;
2020/05/14 02:29:16;;;;;;;26.7;23.8;;;;;;;;;;;;;
2020/05/14 02:31:41;;;;;;;25.8;23;;;;;;;;;;;;;
2020/05/14 02:34:06;;;;;;;25;22.4;;;;;;;;;;;;;
2020/05/14 02:36:31;;;;;;;24.1;21.1;;;;;;;;;;;;;
2020/05/14 02:38:56;;;;;;;24.3;21.8;;;;;;;;;;;;;
2020/05/14 02:41:22;;;;;;;23.9;21.4;;;;;;;;;;;;;
2020/05/14 02:43:47;;;;;;;25.6;22.8;;;;;;;;;;;;;
2020/05/14 02:46:13;;;;;;;25.2;22.3;;;;;;;;;;;;;
2020/05/14 02:48:38;;;;;;;24.2;21.3;;;;;;;;;;;;;
2020/05/14 02:51:03;;;;;;;23.8;20.9;;;;;;;;;;;;;
2020/05/14 02:53:28;;;;;;;21;18.7;;;;;;;;;;;;;
2020/05/14 02:55:53;;;;;;;21.3;19;;;;;;;;;;;;;
2020/05/14 03:00:50;;;;;;;21.1;18.3;;;;;;;;;;;;;
2020/05/14 03:03:14;;;;;;;20.4;18.2;;;;;;;;;;;;;
2020/05/14 03:05:45;;;;;;;19.5;17.5;;;;;;;;;;;;;
2020/05/14 03:08:07;;;;;;;20;17.9;;;;;;;;;;;;;
2020/05/14 03:10:25;;;;;;;19.8;17.8;;;;;;;;;;;;;
2020/05/14 03:12:49;;;;;;;19.1;17.2;;;;;;;;;;;;;
2020/05/14 03:15:14;;;;;;;17.6;15.8;;;;;;;;;;;;;
2020/05/14 03:17:39;;;;;;;17.2;15.5;;;;;;;;;;;;;
2020/05/14 03:20:05;;;;;;;16.9;15.3;;;;;;;;;;;;;
2020/05/14 03:22:30;;;;;;;15;13.5;;;;;;;;;;;;;
2020/05/14 03:25:04;;;;;;;15.5;14;;;;;;;;;;;;;
2020/05/14 03:28:11;;;;;;;14.7;13.3;;;;;;;;;;;;;
2020/05/14 03:32:13;;;;;;;13.5;12.2;;;;;;;;;;;;;
2020/05/14 03:34:36;;;;;;;12.5;11.4;;;;;;;;;;;;;
2020/05/14 03:37:01;;;;;;;13.9;12.5;;;;;;;;;;;;;
2020/05/14 03:39:26;;;;;;;14;12.7;;;;;;;;;;;;;
2020/05/14 03:41:58;;;;;;;14.5;13.1;;;;;;;;;;;;;
2020/05/14 03:51:54;;;;;;;14.4;13;;;;;;;;;;;;;
2020/05/14 03:53:57;;;;;;;14.7;13.3;;;;;;;;;;;;;
2020/05/14 03:56:22;;;;;;;13.9;12.5;;;;;;;;;;;;;
2020/05/14 03:58:47;;;;;;;14.5;13.1;;;;;;;;;;;;;
2020/05/14 04:04:55;;;;;;;14.6;13.2;;;;;;;9.14;86.64063;932.8502;;;;
2020/05/14 04:07:20;;;;;;;13.9;12.4;;;;;;;9.14;86.4248;932.7653;;;;
2020/05/14 04:09:45;;;;;;;14.9;13.4;;;;;;;9.08;86.35645;932.796;;;;
2020/05/14 04:12:10;;;;;;;14.6;13.2;;;;;;;9.05;86.73828;932.7886;;;;
2020/05/14 04:14:38;;;;;;;15.2;13.7;;;;;;;9.01;86.85449;932.6426;;;;
2020/05/14 04:17:03;;;;;;;15.6;14;;;;;;;9;87.09277;932.7189;;;;
2020/05/14 04:19:28;;;;;;;15.9;14.2;;;;;;;8.98;87.22363;932.7648;;;;
2020/05/14 04:21:53;;;;;;;18.3;14.9;;;;;;;8.95;87.16211;932.8297;;;;
2020/05/14 04:24:18;;;;;;;16.8;14.3;;;;;;;9.02;87.15137;932.9154;;;;
2020/05/14 04:26:43;;;;;;;16.1;14.4;;;;;;;9.05;86.81738;932.8894;;;;
2020/05/14 04:29:08;;;;;;;15.9;14.2;;;;;;;9.05;86.67969;932.9712;;;;
2020/05/14 04:31:33;;;;;;;16.2;14.5;;;;;;;9.01;86.77441;932.9874;;;;
2020/05/14 04:33:58;;;;;;;16.3;14.5;;;;;;;9;86.63574;932.9293;;;;
2020/05/14 04:36:24;;;;;;;16;14.3;;;;;;;9;86.68164;932.9221;;;;
2020/05/14 04:38:49;;;;;;;15.9;14.3;;;;;;;9.01;86.64941;932.9988;;;;
2020/05/14 04:41:15;;;;;;;18;14.6;;;;;;;9.04;86.55371;933.0641;;;;
2020/05/14 04:43:42;;;;;;;15.7;14.1;;;;;;;9.1;86.45117;932.9596;;;;
2020/05/14 04:46:07;;;;;;;15.2;13.6;;;;;;;9.08;86.07227;933.0746;;;;
2020/05/14 04:48:32;;;;;;;14.8;13.3;;;;;;;9.04;86.05371;933.1689;;;;
2020/05/14 04:50:57;;;;;;;15.9;14.3;;;;;;;9.02;86.50293;933.2108;;;;
2020/05/14 04:53:23;;;;;;;15.6;13.7;;;;;;;9.05;86.30566;933.2;;;;
2020/05/14 04:55:48;;;;;;;15.8;14.1;;;;;;;9.08;86.23145;933.262;;;;
2020/05/14 04:58:20;;;;;;;15.6;14;;;;;;;9.11;85.99805;933.2885;;;;
2020/05/14 05:05:49;;;;;;;14.7;13.2;;;;;;;8.98;86.74609;933.3167;;;;
2020/05/14 05:10:37;;;;;;;15.1;13.6;;;;;;;9.1;86.36035;933.2478;;;;
2020/05/14 05:17:41;;;;;;;14.7;13.2;;;;;;;9.11;86.47559;933.2805;;;;
2020/05/14 05:24:52;;;;;;;16.9;13.9;;;;;;;9.14;86.60645;933.3284;;;;
2020/05/14 05:27:17;;;;;;;14.4;12.9;;;;;;;9.11;86.33887;933.3917;;;;
2020/05/14 05:29:42;;;;;;;14.6;13;;;;;;;8.79;87.36719;933.407;;;;
2020/05/14 05:32:07;;;;;;;14.3;12.8;;;;;;;8.89;87.49023;933.3636;;;;
2020/05/14 05:34:32;;;;;;;16;12.2;;;;;;;8.97;87.32617;933.342;;;;
2020/05/14 05:36:58;;;;;;;14;12.5;;;;;;;9.03;87.18945;933.3936;;;;
2020/05/14 05:39:23;;;;;;;13.7;12;;;;;;;9.02;87.35645;933.3688;;;;
2020/05/14 05:41:51;;;;;;;15.2;12.7;;;;;;;9.13;86.8457;933.3298;;;;
2020/05/14 05:44:16;;;;;;;13.9;11.8;;;;;;;9.2;86.45996;933.3812;;;;
2020/05/14 05:46:41;;;;;;;14.9;12.7;;;;;;;9.23;86.5127;933.3635;;;;
2020/05/14 05:49:06;;;;;;;14.8;13.2;;;;;;;9.27;86.23535;933.32;;;;
2020/05/14 05:51:33;;;;;;;14.6;11.2;;;;;;;9.33;86.35059;933.3139;;;;
2020/05/14 05:53:59;;;;;;;12.4;11;;;;;;;9.42;85.50098;933.3569;;;;
2020/05/14 05:56:24;;;;;;;12.7;10.9;;;;;;;9.4;85.37402;933.3533;;;;
2020/05/14 05:58:49;;;;;;;14.2;11.1;;;;;;;9.49;85.12793;933.3803;;;;
2020/05/14 06:01:15;;;;;;;13.1;11.2;;;;;;;9.53;85.07031;933.4863;;;;
2020/05/14 06:03:40;;;;;;;12.6;11.3;;;;;;;9.5;85.08398;933.5814;;;;
2020/05/14 06:09:03;;;;;;;13.7;12;;;;;;;9.3;85.35449;933.6738;;;;
2020/05/14 06:11:36;;;;;;;12.4;11.1;;;;;;;9.35;85.10156;933.6939;;;;
2020/05/14 06:14:02;;;;;;;12.6;11.2;;;;;;;9.35;85.36133;933.6549;;;;
2020/05/14 06:16:27;;;;;;;11.9;10.6;;;;;;;9.27;85.68848;933.7402;;;;
2020/05/14 06:18:52;;;;;;;12.3;11;;;;;;;9.21;86.32715;933.7383;;;;
2020/05/14 06:21:31;;;;;;;13;11.2;;;;;;;9.26;86.55176;933.6964;;;;
2020/05/14 06:27:08;;;;;;;11;9.9;;;;;;;9.33;85.80371;933.5865;;;;
2020/05/14 06:33:26;;;;;;;10.7;9.6;;;;;;;9.61;85.12988;933.649;;;;
2020/05/14 06:35:35;;;;;;;10;9;;;;;;;9.67;84.60742;933.6884;;;;
2020/05/14 06:37:59;;;;;;;9.8;8.8;;;;;;;9.74;84.28906;933.6649;;;;
2020/05/14 06:40:42;;;;;;;9.5;8.6;;;;;;;9.79;84.4248;933.7406;;;;
2020/05/14 06:45:22;;;;;;;9;8.1;;;;;;;9.87;84.41797;933.7294;;;;
2020/05/14 06:48:15;;;;;;;10.4;8.3;;;;;;;9.88;84.14648;933.7294;;;;
2020/05/14 06:50:55;;;;;;;8.6;7.8;;;;;;;9.86;84.06152;933.723;;;;
2020/05/14 06:53:19;;;;;;;8.2;7.4;;;;;;;;;;;;;
2020/05/14 06:56:04;;;;;;;8.1;7.3;;;;;;;;;;;;;
2020/05/14 06:58:07;;;;;;;7.9;7.1;;;;;;;;;;;;;
2020/05/14 07:00:56;;;;;;;7.9;7.1;;;;;;;;;;;;;
2020/05/14 07:05:27;;;;;;;6.3;5.7;;;;;;;;;;;;;
2020/05/14 07:12:59;;;;;;;6.1;5.5;;;;;;;;;;;;;
2020/05/14 07:15:06;;;;;;;5.8;5.2;;;;;;;;;;;;;
2020/05/14 07:19:48;;;;;;;5.2;4.7;;;;;;;;;;;;;
2020/05/14 07:22:13;;;;;;;6.1;4.8;;;;;;;;;;;;;
2020/05/14 07:24:38;;;;;;;6.5;5;;;;;;;;;;;;;
2020/05/14 07:27:03;;;;;;;5.7;5.1;;;;;;;;;;;;;
2020/05/14 07:29:29;;;;;;;6.4;5.8;;;;;;;;;;;;;
2020/05/14 07:31:54;;;;;;;6.8;6.1;;;;;;;;;;;;;
2020/05/14 07:34:19;;;;;;;6.4;5.8;;;;;;;;;;;;;
2020/05/14 07:36:44;;;;;;;6.4;5.8;;;;;;;;;;;;;
2020/05/14 07:39:10;;;;;;;6.7;6;;;;;;;;;;;;;
2020/05/14 07:41:35;;;;;;;7.2;6.5;;;;;;;;;;;;;
2020/05/14 07:44:00;;;;;;;6.4;5.7;;;;;;;;;;;;;
2020/05/14 07:48:50;;;;;;;6.4;5.7;;;;;;;;;;;;;
2020/05/14 07:51:16;;;;;;;6.5;5.9;;;;;;;;;;;;;
2020/05/14 07:53:41;;;;;;;7.3;5.5;;;;;;;;;;;;;
2020/05/14 07:56:07;;;;;;;5.8;5.2;;;;;;;;;;;;;
2020/05/14 07:58:32;;;;;;;6.1;5.5;;;;;;;;;;;;;
2020/05/14 08:00:57;;;;;;;5.9;5.3;;;;;;;;;;;;;
2020/05/14 08:03:22;;;;;;;6.2;5.6;;;;;;;;;;;;;
2020/05/14 08:05:48;;;;;;;5.7;5.2;;;;;;;;;;;;;
2020/05/14 08:08:13;;;;;;;6;5.4;;;;;;;;;;;;;
2020/05/14 08:10:38;;;;;;;6.8;5.7;;;;;;;;;;;;;
2020/05/14 08:13:03;;;;;;;6.5;5.3;;;;;;;;;;;;;
2020/05/14 08:15:29;;;;;;;6.3;5.6;;;;;;;;;;;;;
2020/05/14 08:17:55;;;;;;;6.9;5.6;;;;;;;;;;;;;
2020/05/14 08:20:20;;;;;;;6.4;5.6;;;;;;;;;;;;;
2020/05/14 08:22:46;;;;;;;7.6;5.7;;;;;;;;;;;;;
2020/05/14 08:25:11;;;;;;;5.7;5.1;;;;;;;;;;;;;
2020/05/14 08:27:37;;;;;;;5.7;5.1;;;;;;;;;;;;;
2020/05/14 08:30:02;;;;;;;5.8;5.2;;;;;;;;;;;;;
2020/05/14 08:32:28;;;;;;;5.6;4.8;;;;;;;;;;;;;
2020/05/14 08:34:53;;;;;;;5.7;5.2;;;;;;;;;;;;;
2020/05/14 08:37:19;;;;;;;6.8;5.3;;;;;;;;;;;;;
2020/05/14 08:39:44;;;;;;;5.8;5.2;;;;;;;;;;;;;
2020/05/14 08:42:09;;;;;;;6.5;5.4;;;;;;;;;;;;;
2020/05/14 08:44:34;;;;;;;5.7;5.1;;;;;;;;;;;;;
2020/05/14 08:46:59;;;;;;;6.3;5;;;;;;;;;;;;;
2020/05/14 08:49:24;;;;;;;5.3;4.8;;;;;;;;;;;;;
2020/05/14 08:54:17;;;;;;;5.2;4.4;;;;;;;;;;;;;
2020/05/14 08:56:41;;;;;;;5.6;5;;;;;;;;;;;;;
2020/05/14 08:59:06;;;;;;;5.2;4.7;;;;;;;;;;;;;
2020/05/14 09:01:32;;;;;;;5.3;4.8;;;;;;;;;;;;;
2020/05/14 09:03:57;;;;;;;5.6;4.5;;;;;;;;;;;;;
2020/05/14 09:06:22;;;;;;;5.1;4.6;;;;;;;;;;;;;
2020/05/14 09:08:47;;;;;;;5.4;4.9;;;;;;;;;;;;;
2020/05/14 09:11:12;;;;;;;4.9;4.4;;;;;;;;;;;;;
2020/05/14 09:13:38;;;;;;;7.2;4.5;;;;;;;;;;;;;
2020/05/14 09:16:03;;;;;;;4.5;4.1;;;;;;;;;;;;;
2020/05/14 09:18:28;;;;;;;4.6;4.2;;;;;;;;;;;;;
2020/05/14 09:20:53;;;;;;;4.8;4.1;;;;;;;;;;;;;
2020/05/14 09:23:18;;;;;;;4.4;4;;;;;;;;;;;;;
2020/05/14 09:25:43;;;;;;;4.5;4.1;;;;;;;;;;;;;
2020/05/14 09:28:09;;;;;;;5.5;4.6;;;;;;;;;;;;;
2020/05/14 09:30:34;;;;;;;6.7;4.4;;;;;;;;;;;;;
2020/05/14 09:32:59;;;;;;;5.7;4.3;;;;;;;;;;;;;
2020/05/14 09:35:24;;;;;;;5.2;4.7;;;;;;;;;;;;;
2020/05/14 09:38:07;;;;;;;4.5;4.1;;;;;;;;;;;;;
2020/05/14 09:40:15;;;;;;;4.8;4.3;;;;;;;;;;;;;
2020/05/14 09:42:40;;;;;;;5.1;4.6;;;;;;;;;;;;;
2020/05/14 09:45:26;;;;;;;4.7;4.3;;;;;;;;;;;;;
2020/05/14 09:47:38;;;;;;;4.9;4.4;;;;;;;;;;;;;
2020/05/14 09:52:30;;;;;;;5.2;4.7;;;;;;;;;;;;;
2020/05/14 09:54:51;;;;;;;5.4;4.9;;;;;;;;;;;;;
2020/05/14 09:57:34;;;;;;;5.1;4.6;;;;;;;;;;;;;
2020/05/14 09:59:44;;;;;;;5.1;4.6;;;;;;;;;;;;;
2020/05/14 10:04:48;;;;;;;4.9;4.4;;;;;;;;;;;;;
2020/05/14 10:11:46;;;;;;;5.5;4.8;;;;;;;;;;;;;
2020/05/14 10:14:07;;;;;;;5.7;5.1;;;;;;;;;;;;;
2020/05/14 10:19:12;;;;;;;4.9;4.4;;;;;;;;;;;;;
2020/05/14 10:21:32;;;;;;;5;4.6;;;;;;;;;;;;;
2020/05/14 10:26:16;;;;;;;5.1;4.7;;;;;;;;;;;;;
2020/05/14 10:28:38;;;;;;;5;4.6;;;;;;;;;;;;;
2020/05/14 10:36:11;;;;;;;6;5.1;;;;;;;;;;;;;
2020/05/14 10:38:43;;;;;;;5.8;5.2;;;;;;;;;;;;;
2020/05/14 10:40:46;;;;;;;5.3;4.8;;;;;;;;;;;;;
2020/05/14 10:43:09;;;;;;;5.6;5;;;;;;;;;;;;;
2020/05/14 10:45:35;;;;;;;5.2;4.7;;;;;;;;;;;;;
2020/05/14 10:48:01;;;;;;;5.2;4.7;;;;;;;;;;;;;
2020/05/14 10:50:26;;;;;;;5.5;4.9;;;;;;;;;;;;;
2020/05/14 10:52:52;;;;;;;9;4.8;;;;;;;;;;;;;
2020/05/14 10:55:17;;;;;;;5.3;4.4;;;;;;;;;;;;;
2020/05/14 10:57:43;;;;;;;5.4;4.6;;;;;;;;;;;;;
2020/05/14 11:00:08;;;;;;;4.7;4.3;;;;;;;;;;;;;
2020/05/14 11:02:34;;;;;;;4.7;4.3;;;;;;;;;;;;;
2020/05/14 11:04:59;;;;;;;5;4.5;;;;;;;;;;;;;
2020/05/14 11:07:25;;;;;;;5.8;4.9;;;;;;;;;;;;;
2020/05/14 11:09:50;;;;;;;4.9;4.4;;;;;;;;;;;;;
2020/05/14 11:12:15;;;;;;;4.5;4.1;;;;;;;;;;;;;
2020/05/14 11:14:40;;;;;;;4.5;4.1;;;;;;;;;;;;;
2020/05/14 11:17:06;;;;;;;4.9;4.4;;;;;;;;;;;;;
2020/05/14 11:19:31;;;;;;;4.9;4.1;;;;;;;;;;;;;
2020/05/14 11:21:56;;;;;;;5.2;4.7;;;;;;;;;;;;;
2020/05/14 11:24:21;;;;;;;4.9;4.4;;;;;;;;;;;;;
2020/05/14 11:26:46;;;;;;;4.9;4.4;;;;;;;;;;;;;
2020/05/14 11:29:21;;;;;;;5.8;4.3;;;;;;;;;;;;;
2020/05/14 11:31:45;;;;;;;4.5;4.1;;;;;;;;;;;;;
2020/05/14 11:34:11;;;;;;;4.6;4.2;;;;;;;;;;;;;
2020/05/14 11:36:36;;;;;;;5.3;4.2;;;;;;;;;;;;;
2020/05/14 11:39:01;;;;;;;4.5;4;;;;;;;;;;;;;
2020/05/14 11:41:26;;;;;;;4.8;4.2;;;;;;;;;;;;;
2020/05/14 11:43:51;;;;;;;4.3;3.9;;;;;;;;;;;;;
2020/05/14 11:46:17;;;;;;;4.6;4.2;;;;;;;;;;;;;
2020/05/14 11:48:42;;;;;;;4.2;3.8;;;;;;;;;;;;;
2020/05/14 11:51:08;;;;;;;4.7;4.1;;;;;;;;;;;;;
2020/05/14 11:53:33;;;;;;;4.6;3.8;;;;;;;;;;;;;
2020/05/14 11:56:00;;;;;;;4.4;4;;;;;;;;;;;;;
2020/05/14 11:58:25;;;;;;;4.8;3.9;;;;;;;;;;;;;
2020/05/14 12:00:50;;;;;;;4.2;3.8;;;;;;;;;;;;;
2020/05/14 12:03:16;;;;;;;5.7;4;;;;;;;;;;;;;
2020/05/14 12:05:41;;;;;;;4.4;3.7;;;;;;;;;;;;;
2020/05/14 12:08:06;;;;;;;4.4;4;;;;;;;;;;;;;
2020/05/14 12:10:38;;;;;;;4.5;4;;;;;;;;;;;;;
2020/05/14 12:13:41;;;;;;;4.4;4;;;;;;;;;;;;;
2020/05/14 12:15:30;;;;;;;5;3.8;;;;;;;;;;;;;
2020/05/14 12:17:51;;;;;;;5.4;4;;;;;;;;;;;;;
2020/05/14 12:20:15;;;;;;;4.6;4.1;;;;;;;;;;;;;
2020/05/14 12:22:41;;;;;;;5.4;4.5;;;;;;;;;;;;;
2020/05/14 12:25:06;;;;;;;5.8;4.3;;;;;;;;;;;;;
2020/05/14 12:27:31;;;;;;;5.7;4.6;;;;;;;;;;;;;
2020/05/14 12:29:56;;;;;;;5.8;4.8;;;;;;;;;;;;;
2020/05/14 12:32:21;;;;;;;6.9;4.5;;;;;;;;;;;;;
2020/05/14 12:34:46;;;;;;;5.8;4.9;;;;;;;;;;;;;
2020/05/14 12:37:11;;;;;;;7.9;4.5;;;;;;;;;;;;;
2020/05/14 12:39:36;;;;;;;6.3;5;;;;;;;;;;;;;
2020/05/14 12:42:02;;;;;;;5.6;5;;;;;;;;;;;;;
2020/05/14 12:44:27;;;;;;;5.7;5.1;;;;;;;;;;;;;
2020/05/14 12:46:54;;;;;;;5.2;4.7;;;;;;;;;;;;;
2020/05/14 12:49:19;;;;;;;6;5.4;;;;;;;;;;;;;
2020/05/14 12:51:44;;;;;;;7.6;5.1;;;;;;;;;;;;;
2020/05/14 12:54:09;;;;;;;8.5;5.3;;;;;;;;;;;;;
2020/05/14 12:56:36;;;;;;;6;5.3;;;;;;;;;;;;;
2020/05/14 12:59:01;;;;;;;5.7;5.1;;;;;;;;;;;;;
2020/05/14 13:01:26;;;;;;;12;5.3;;;;;;;;;;;;;
2020/05/14 13:03:51;;;;;;;5.7;5.1;;;;;;;;;;;;;
2020/05/14 13:06:16;;;;;;;8.9;5.2;;;;;;;;;;;;;
2020/05/14 13:08:41;;;;;;;8;5.3;;;;;;;;;;;;;
2020/05/14 13:11:28;;;;;;;8.3;5;;;;;;;;;;;;;
2020/05/14 13:16:26;;;;;;;7;5.6;;;;;;;;;;;;;
2020/05/14 13:18:45;;;;;;;6;5.4;;;;;;;;;;;;;
2020/05/14 13:21:11;;;;;;;7.4;5.4;;;;;;;;;;;;;
2020/05/14 13:23:14;;;;;;;7;5.8;;;;;;;;;;;;;
2020/05/14 13:25:39;;;;;;;7.8;5.9;;;;;;;;;;;;;
2020/05/14 13:28:04;;;;;;;7;6;;;;;;;;;;;;;
2020/05/14 13:30:29;;;;;;;7.4;5.7;;;;;;;;;;;;;
2020/05/14 13:32:54;;;;;;;6.1;5.5;;;;;;;;;;;;;
2020/05/14 13:35:19;;;;;;;8.9;6;;;;;;;;;;;;;
2020/05/14 13:37:44;;;;;;;6.4;5.7;;;;;;;;;;;;;
2020/05/14 13:40:09;;;;;;;7;6.3;;;;;;;;;;;;;
2020/05/14 13:42:35;;;;;;;6.5;5.9;;;;;;;;;;;;;
2020/05/14 13:45:01;;;;;;;6.9;5.9;;;;;;;;;;;;;
2020/05/14 13:47:26;;;;;;;6.9;6.2;;;;;;;;;;;;;
2020/05/14 13:49:51;;;;;;;6.4;5.7;;;;;;;;;;;;;
2020/05/14 13:52:17;;;;;;;7.1;5.8;;;;;;;;;;;;;
2020/05/14 13:54:43;;;;;;;6.7;6;;;;;;;;;;;;;
2020/05/14 13:57:08;;;;;;;7.8;6.2;;;;;;;;;;;;;
2020/05/14 13:59:34;;;;;;;8.7;6.4;;;;;;;;;;;;;
2020/05/14 14:01:59;;;;;;;7;6.2;;;;;;;;;;;;;
2020/05/14 14:04:25;;;;;;;7.4;6.7;;;;;;;;;;;;;
2020/05/14 14:06:50;;;;;;;7.3;6.5;;;;;;;;;;;;;
2020/05/14 14:09:21;;;;;;;7.3;6.1;;;;;;;;;;;;;
2020/05/14 14:11:50;;;;;;;6.9;6.2;;;;;;;;;;;;;
2020/05/14 14:14:08;;;;;;;7.4;6.2;;;;;;;;;;;;;
2020/05/14 14:17:14;;;;;;;6.8;6.2;;;;;;;;;;;;;
2020/05/14 14:18:58;;;;;;;6.4;5.8;;;;;;;;;;;;;
2020/05/14 14:21:23;;;;;;;7;6.3;;;;;;;;;;;;;
2020/05/14 14:23:49;;;;;;;7;6.3;;;;;;;;;;;;;
2020/05/14 14:26:14;;;;;;;6.5;5.9;;;;;;;;;;;;;
2020/05/14 14:28:40;;;;;;;8.1;6.9;;;;;;;;;;;;;
2020/05/14 14:31:05;;;;;;;7.3;6.7;;;;;;;;;;;;;
2020/05/14 14:33:30;;;;;;;7.3;6.6;;;;;;;;;;;;;
2020/05/14 14:35:55;;;;;;;7.8;7.1;;;;;;;;;;;;;
2020/05/14 14:38:20;;;;;;;7.6;6.8;;;;;;;;;;;;;
2020/05/14 14:40:45;;;;;;;8.2;6.9;;;;;;;;;;;;;
2020/05/14 14:43:10;;;;;;;8.6;7.2;;;;;;;;;;;;;
2020/05/14 14:45:36;;;;;;;7.9;7.1;;;;;;;;;;;;;
2020/05/14 14:48:01;;;;;;;8;7.2;;;;;;;;;;;;;
2020/05/14 14:50:27;;;;;;;8;7.2;;;;;;;;;;;;;
2020/05/14 14:52:52;;;;;;;8.5;7.6;;;;;;;;;;;;;
2020/05/14 14:55:17;;;;;;;8.6;7.7;;;;;;;;;;;;;
2020/05/14 14:57:43;;;;;;;7.9;7.1;;;;;;;;;;;;;
2020/05/14 15:00:08;;;;;;;7.9;7.1;;;;;;;;;;;;;
2020/05/14 15:02:33;;;;;;;7.9;6.4;;;;;;;;;;;;;
2020/05/14 15:04:58;;;;;;;7.8;6.6;;;;;;;;;;;;;
2020/05/14 15:07:23;;;;;;;7.1;6.5;;;;;;;;;;;;;
2020/05/14 15:09:48;;;;;;;10;7.1;;;;;;;;;;;;;
2020/05/14 15:12:14;;;;;;;8;7.2;;;;;;;;;;;;;
2020/05/14 15:14:39;;;;;;;8.9;7.6;;;;;;;;;;;;;
2020/05/14 15:17:05;;;;;;;9.5;8.5;;;;;;;;;;;;;
2020/05/14 15:19:30;;;;;;;9.3;8.4;;;;;;;;;;;;;
2020/05/14 15:21:56;;;;;;;9.5;8.3;;;;;;;;;;;;;
2020/05/14 15:24:21;;;;;;;9.7;8.7;;;;;;;;;;;;;
2020/05/14 15:26:46;;;;;;;10.9;9.4;;;;;;;;;;;;;
2020/05/14 15:29:11;;;;;;;10.8;9.7;;;;;;;;;;;;;
2020/05/14 15:31:36;;;;;;;10.3;9.3;;;;;;;;;;;;;
2020/05/14 15:34:01;;;;;;;10.6;9.5;;;;;;;;;;;;;
2020/05/14 15:36:33;;;;;;;10.2;9.2;;;;;;;;;;;;;
2020/05/14 15:38:51;;;;;;;11.4;9.6;;;;;;;;;;;;;
2020/05/14 15:41:17;;;;;;;10.6;9.5;;;;;;;;;;;;;
2020/05/14 15:43:58;;;;;;;9.6;8.7;;;;;;;;;;;;;
2020/05/14 15:48:38;;;;;;;10.1;8.9;;;;;;;;;;;;;
2020/05/14 15:51:18;;;;;;;10.3;9.1;;;;;;;;;;;;;
2020/05/14 15:53:27;;;;;;;10;9;;;;;;;;;;;;;
2020/05/14 15:55:49;;;;;;;10.2;9.3;;;;;;;;;;;;;
2020/05/14 16:01:20;;;;;;;9.9;8.9;;;;;;;;;;;;;
2020/05/14 16:03:36;;;;;;;10.2;9.2;;;;;;;;;;;;;
2020/05/14 16:10:44;;;;;;;10.5;9.2;;;;;;;;;;;;;
2020/05/14 16:15:24;;;;;;;10.7;9.7;;;;;;;;;;;;;
2020/05/14 16:25:10;;;;;;;10.7;9.7;;;;;;;;;;;;;
2020/05/14 16:32:53;;;;;;;12.4;11.2;;;;;;;;;;;;;
2020/05/14 16:37:10;;;;;;;12.9;11.6;;;;;;;;;;;;;
2020/05/14 16:39:35;;;;;;;12.9;11.6;;;;;;;;;;;;;
2020/05/14 16:41:53;;;;;;;13.4;12;;;;;;;;;;;;;
2020/05/14 16:44:15;;;;;;;13.1;11.8;;;;;;;;;;;;;
2020/05/14 16:46:36;;;;;;;12.4;11.2;;;;;;;;;;;;;
2020/05/14 16:49:01;;;;;;;12.4;11.1;;;;;;;;;;;;;
2020/05/14 16:51:26;;;;;;;13.3;11.9;;;;;;;;;;;;;
2020/05/14 16:53:52;;;;;;;13.2;11.9;;;;;;;;;;;;;
2020/05/14 16:56:17;;;;;;;12.7;11.4;;;;;;;;;;;;;
2020/05/14 16:58:42;;;;;;;13.6;11.2;;;;;;;;;;;;;
2020/05/14 17:01:08;;;;;;;12.5;11.2;;;;;;;;;;;;;
2020/05/14 17:03:34;;;;;;;12.6;11.4;;;;;;;;;;;;;
2020/05/14 17:05:59;;;;;;;12.7;11.4;;;;;;;;;;;;;
2020/05/14 17:08:25;;;;;;;12.3;11.1;;;;;;;;;;;;;
2020/05/14 17:10:50;;;;;;;12.8;11.3;;;;;;;;;;;;;
2020/05/14 17:13:16;;;;;;;13.4;12.1;;;;;;;;;;;;;
2020/05/14 17:15:42;;;;;;;13.6;12.2;;;;;;;;;;;;;
2020/05/14 17:18:06;;;;;;;13.7;12.4;;;;;;;;;;;;;
2020/05/14 17:20:31;;;;;;;14.4;13;;;;;;;;;;;;;
2020/05/14 17:22:56;;;;;;;14.4;13;;;;;;;;;;;;;
2020/05/14 17:25:22;;;;;;;14.4;12.9;;;;;;;;;;;;;
2020/05/14 17:27:47;;;;;;;15.8;14.2;;;;;;;;;;;;;
2020/05/14 17:30:12;;;;;;;15.6;14.1;;;;;;;;;;;;;
2020/05/14 17:32:37;;;;;;;15.1;13.7;;;;;;;;;;;;;
2020/05/14 17:35:03;;;;;;;15.7;14.2;;;;;;;;;;;;;
2020/05/14 17:37:28;;;;;;;15.5;14;;;;;;;;;;;;;
2020/05/14 17:39:53;;;;;;;16.5;14.9;;;;;;;;;;;;;
2020/05/14 17:42:18;;;;;;;17.6;15.7;;;;;;;;;;;;;
2020/05/14 17:44:43;;;;;;;17.2;15.4;;;;;;;;;;;;;
2020/05/14 17:47:16;;;;;;;17.5;15.8;;;;;;;;;;;;;
2020/05/14 17:49:45;;;;;;;18;16.3;;;;;;;;;;;;;
2020/05/14 17:52:10;;;;;;;18.9;17;;;;;;;;;;;;;
2020/05/14 17:54:35;;;;;;;19;17.1;;;;;;;;;;;;;
2020/05/14 17:57:00;;;;;;;18.3;16.5;;;;;;;;;;;;;
2020/05/14 17:59:32;;;;;;;19.1;17.3;;;;;;;;;;;;;
2020/05/14 18:02:20;;;;;;;20;18.1;;;;;;;;;;;;;
2020/05/14 18:04:32;;;;;;;20.9;18.8;;;;;;;;;;;;;
2020/05/14 18:06:55;;;;;;;19.7;17.9;;;;;;;;;;;;;
2020/05/14 18:09:25;;;;;;;20.4;18.4;;;;;;;;;;;;;
2020/05/14 18:11:49;;;;;;;21.9;19.7;;;;;;;;;;;;;
2020/05/14 18:14:14;;;;;;;21.7;19.6;;;;;;;;;;;;;
2020/05/14 18:16:39;;;;;;;22.7;20.5;;;;;;;;;;;;;
2020/05/14 18:19:04;;;;;;;23.2;20.8;;;;;;;;;;;;;
2020/05/14 18:21:30;;;;;;;23.8;21.3;;;;;;;;;;;;;
2020/05/14 18:23:55;;;;;;;24.1;21.7;;;;;;;;;;;;;
2020/05/14 18:26:22;;;;;;;25.2;22.8;;;;;;;;;;;;;
2020/05/14 18:28:47;;;;;;;26;23.3;;;;;;;;;;;;;
2020/05/14 18:31:14;;;;;;;27.2;24.6;;;;;;;;;;;;;
2020/05/14 18:33:39;;;;;;;27.1;24.5;;;;;;;;;;;;;
2020/05/14 18:36:04;;;;;;;26.9;24.3;;;;;;;;;;;;;
2020/05/14 18:38:31;;;;;;;26.8;24.2;;;;;;;;;;;;;
2020/05/14 18:40:58;;;;;;;27.8;24.9;;;;;;;;;;;;;
2020/05/14 18:43:26;;;;;;;29.3;26.3;;;;;;;;;;;;;
2020/05/14 18:46:08;;;;;;;28.8;25.9;;;;;;;;;;;;;
2020/05/14 18:48:37;;;;;;;28.4;25.6;;;;;;;;;;;;;
2020/05/14 18:51:06;;;;;;;28.7;25.9;;;;;;;;;;;;;
2020/05/14 18:53:29;;;;;;;29.9;27;;;;;;;;;;;;;
2020/05/14 18:55:41;;;;;;;30.9;27.9;;;;;;;;;;;;;
2020/05/14 18:58:13;;;;;;;30.9;27.7;;;;;;;;;;;;;
2020/05/14 19:00:30;;;;;;;30.2;27.2;;;;;;;;;;;;;
2020/05/14 19:05:23;;;;;;;30.9;27.7;;;;;;;;;;;;;
2020/05/14 19:07:55;;;;;;;30.6;27.5;;;;;;;;;;;;;
2020/05/14 19:10:39;;;;;;;30.9;27.8;;;;;;;;;;;;;
2020/05/14 19:20:10;;;;;;;31.9;28.8;;;;;;;;;;;;;
2020/05/14 19:25:06;;;;;;;31.5;28.4;;;;;;;;;;;;;
2020/05/14 19:33:42;;;;;;;31.1;28.1;;;;;;;;;;;;;
2020/05/14 19:34:37;;;;;;;31.1;28;;;;;;;;;;;;;
2020/05/14 19:38:53;;;;;;;32;28.8;;;;;;;;;;;;;
2020/05/14 19:39:33;;;;;;;31.7;28.6;;;;;;;;;;;;;
2020/05/14 19:41:50;;;;;;;30.6;27.5;;;;;;;;;;;;;
2020/05/14 19:44:21;;;;;;;32.9;29.2;;;;;;;;;;;;;
2020/05/14 19:57:05;;;;;;;31.2;27.9;;;;;;;;;;;;;
2020/05/14 19:59:24;;;;;;;30.5;27.3;;;;;;;;;;;;;
2020/05/14 20:02:07;;;;;;;28.3;25.5;;;;;;;;;;;;;
2020/05/14 20:04:35;;;;;;;29.5;26.4;;;;;;;;;;;;;
2020/05/14 20:06:59;;;;;;;28.8;26;;;;;;;;;;;;;
2020/05/14 20:09:17;;;;;;;27.9;25.1;;;;;;;;;;;;;
2020/05/14 20:12:02;;;;;;;27.4;24.7;;;;;;;;;;;;;
2020/05/14 20:14:28;;;;;;;28;25.3;;;;;;;;;;;;;
2020/05/14 20:16:51;;;;;;;28.1;25.4;;;;;;;;;;;;;
2020/05/14 20:19:43;;;;;;;26.8;24.2;;;;;;;;;;;;;
2020/05/14 20:22:00;;;;;;;28;25.4;;;;;;;;;;;;;
2020/05/14 20:24:10;;;;;;;27.1;24.5;;;;;;;;;;;;;
2020/05/14 20:26:42;;;;;;;26.4;23.9;;;;;;;;;;;;;
2020/05/14 20:29:12;;;;;;;27.8;25.2;;;;;;;;;;;;;
2020/05/14 20:31:38;;;;;;;27;24.4;;;;;;;;;;;;;
2020/05/14 20:34:12;;;;;;;25.5;23.1;;;;;;;;;;;;;
2020/05/14 20:36:35;;;;;;;26;23.5;;;;;;;;;;;;;
2020/05/14 20:38:59;;;;;;;25.7;23.2;;;;;;;;;;;;;
2020/05/14 20:41:26;;;;;;;26;23.6;;;;;;;;;;;;;
2020/05/14 20:43:43;;;;;;;25.2;22.9;;;;;;;;;;;;;
2020/05/14 20:46:07;;;;;;;24.8;22.4;;;;;;;;;;;;;
2020/05/14 20:48:33;;;;;;;25.6;23;;;;;;;;;;;;;
2020/05/14 20:53:24;;;;;;;25.3;22.6;;;;;;;;;;;;;
2020/05/14 20:55:55;;;;;;;26;21.4;;;;;;;;;;;;;
2020/05/14 20:58:18;;;;;;;22.9;20.6;;;;;;;;;;;;;
2020/05/14 21:01:02;;;;;;;22.5;20.2;;;;;;;;;;;;;
2020/05/14 21:03:17;;;;;;;22.4;20.4;;;;;;;;;;;;;
2020/05/14 21:08:12;;;;;;;21.6;19.6;;;;;;;;;;;;;
2020/05/14 21:10:37;;;;;;;22.3;20.1;;;;;;;;;;;;;
2020/05/14 21:13:22;;;;;;;22;19.9;;;;;;;;;;;;;
2020/05/14 21:15:23;;;;;;;20.4;18.5;;;;;;;;;;;;;
2020/05/14 21:17:57;;;;;;;19.9;18;;;;;;;;;;;;;
2020/05/14 21:20:21;;;;;;;19.5;17.7;;;;;;;;;;;;;
2020/05/14 21:22:37;;;;;;;19.4;17.7;;;;;;;;;;;;;
2020/05/14 21:25:12;;;;;;;19.4;17.6;;;;;;;;;;;;;
2020/05/14 21:27:38;;;;;;;20;18.2;;;;;;;;;;;;;
2020/05/14 21:29:56;;;;;;;20.2;18.2;;;;;;;;;;;;;
2020/05/14 21:34:52;;;;;;;19.7;17.9;;;;;;;;;;;;;
2020/05/14 21:37:47;;;;;;;21.4;19.4;;;;;;;;;;;;;
2020/05/14 21:39:36;;;;;;;19.7;17.9;;;;;;;;;;;;;
2020/05/14 21:42:01;;;;;;;20.2;18.4;;;;;;;;;;;;;
2020/05/14 21:44:27;;;;;;;20.3;18.4;;;;;;;;;;;;;